Time;durP1;ratioP1;P1;durP2;ratioP2;P2;SDS_P1;SDS_P2;PMS_P1;PMS_P2;Temp;Humidity;BMP_temperature;BMP_pressure;BME280_temperature;BME280_humidity;BME280_pressure;Samples;Min_cycle;Max_cycle;Signal;HPM_P1;HPM_P2
2023/01/30 00:02:57;;;;;;;58.60;25.43;;;;;;;;;;10352892;28;20076;-85
2023/01/30 00:07:58;;;;;;;50.57;22.73;;;;;;;;;;10347759;28;20857;-85
2023/01/30 00:12:59;;;;;;;55.17;24.33;;;;;;;;;;10356095;28;20109;-84
2023/01/30 00:18:00;;;;;;;59.07;25.53;;;;;;;;;;10340520;28;20679;-84
2023/01/30 00:23:01;;;;;;;51.37;22.43;;;;;;;;;;10359942;28;20050;-86
2023/01/30 00:28:02;;;;;;;55.40;25.67;;;;;;;;;;10362892;28;20117;-84
2023/01/30 00:33:03;;;;;;;52.60;23.70;;;;;;;;;;10361644;28;20092;-85
2023/01/30 00:38:04;;;;;;;46.40;21.37;;;;;;;;;;10337087;28;21098;-85
2023/01/30 00:48:24;;;;;;;47.40;21.97;;;;;;;;;;10351450;28;20061;-86
2023/01/30 00:53:25;;;;;;;47.57;22.70;;;;;;;;;;10364013;28;20580;-84
2023/01/30 00:58:26;;;;;;;47.07;20.50;;;;;;;;;;10361873;28;20092;-86
2023/01/30 01:03:27;;;;;;;50.47;20.83;;;;;;;;;;10352698;28;20047;-86
2023/01/30 01:08:28;;;;;;;39.77;17.87;;;;;;;;;;10345372;28;20440;-86
2023/01/30 01:13:29;;;;;;;40.33;17.20;;;;;;;;;;10355244;28;20032;-84
2023/01/30 01:18:30;;;;;;;42.87;18.77;;;;;;;;;;10356593;28;20800;-85
2023/01/30 01:23:31;;;;;;;44.63;20.07;;;;;;;;;;10358818;28;20144;-84
2023/01/30 01:28:32;;;;;;;42.33;19.80;;;;;;;;;;10357213;28;20045;-85
2023/01/30 01:33:33;;;;;;;40.40;18.30;;;;;;;;;;10339446;28;20052;-86
2023/01/30 01:38:34;;;;;;;38.30;19.20;;;;;;;;;;10362408;28;20081;-85
2023/01/30 01:43:37;;;;;;;45.13;19.27;;;;;;;;;;10330129;28;20022;-84
2023/01/30 01:48:44;;;;;;;44.40;20.57;;;;;;;;;;10320891;28;20045;-84
2023/01/30 01:53:57;;;;;;;47.27;20.80;;;;;;;;;;10322179;28;20073;-84
2023/01/30 01:59:01;;;;;;;45.50;22.07;;;;;;;;;;10320368;28;20053;-83
2023/01/30 02:04:04;;;;;;;48.83;22.33;;;;;;;;;;10344313;28;20752;-83
2023/01/30 02:09:06;;;;;;;49.33;22.83;;;;;;;;;;10331036;28;20041;-85
2023/01/30 02:14:08;;;;;;;46.20;20.27;;;;;;;;;;10361056;28;20599;-83
2023/01/30 02:19:18;;;;;;;38.30;18.63;;;;;;;;;;10360944;28;20462;-83
2023/01/30 02:24:33;;;;;;;37.47;17.40;;;;;;;;;;10356438;28;20144;-86
2023/01/30 02:29:53;;;;;;;42.35;18.98;;;;;;;;;;10361555;28;20033;-84
2023/01/30 02:34:57;;;;;;;39.67;18.17;;;;;;;;;;10321475;28;20034;-84
2023/01/30 02:40:17;;;;;;;40.03;16.63;;;;;;;;;;10327856;28;20096;-84
2023/01/30 02:45:30;;;;;;;37.93;16.50;;;;;;;;;;10351405;28;20848;-84
2023/01/30 02:50:34;;;;;;;34.77;16.20;;;;;;;;;;10369101;28;20725;-84
2023/01/30 02:55:35;;;;;;;35.50;16.63;;;;;;;;;;10366104;28;20164;-83
2023/01/30 03:00:36;;;;;;;37.80;16.63;;;;;;;;;;10362861;28;20022;-83
2023/01/30 03:05:44;;;;;;;33.10;15.40;;;;;;;;;;10354473;28;20660;-83
2023/01/30 03:11:00;;;;;;;31.50;15.80;;;;;;;;;;10355163;28;20532;-84
2023/01/30 03:16:01;;;;;;;;;;;;;;;;;;10348490;28;20042;-85
2023/01/30 03:21:05;;;;;;;36.53;15.63;;;;;;;;;;10358564;28;19921;-88
2023/01/30 03:26:09;;;;;;;34.97;17.53;;;;;;;;;;10358740;28;20493;-86
2023/01/30 03:31:10;;;;;;;34.57;16.13;;;;;;;;;;10360515;28;20041;-86
2023/01/30 03:36:11;;;;;;;30.33;14.93;;;;;;;;;;10343737;28;20046;-86
2023/01/30 03:41:12;;;;;;;36.27;15.20;;;;;;;;;;10363981;28;20493;-86
2023/01/30 03:46:13;;;;;;;29.00;14.43;;;;;;;;;;10349029;28;20044;-86
2023/01/30 03:51:14;;;;;;;27.43;14.10;;;;;;;;;;10347903;28;20038;-86
2023/01/30 03:56:15;;;;;;;36.07;15.10;;;;;;;;;;10358486;28;20100;-82
2023/01/30 04:01:16;;;;;;;34.73;14.27;;;;;;;;;;10355941;28;20030;-86
2023/01/30 04:06:17;;;;;;;31.33;14.73;;;;;;;;;;10355571;28;20034;-86
2023/01/30 04:11:18;;;;;;;33.20;16.10;;;;;;;;;;10363399;28;20030;-87
2023/01/30 04:16:20;;;;;;;32.00;14.63;;;;;;;;;;10347356;28;20145;-85
2023/01/30 04:21:21;;;;;;;35.27;13.60;;;;;;;;;;10346868;28;20184;-87
2023/01/30 04:26:22;;;;;;;26.80;13.13;;;;;;;;;;10357839;28;20088;-83
2023/01/30 04:31:23;;;;;;;28.47;14.00;;;;;;;;;;10344492;28;20550;-86
2023/01/30 04:36:24;;;;;;;29.40;13.83;;;;;;;;;;10364551;28;20078;-87
2023/01/30 04:41:25;;;;;;;33.83;15.07;;;;;;;;;;10354029;28;20612;-83
2023/01/30 04:46:26;;;;;;;38.07;15.47;;;;;;;;;;10359593;28;20041;-85
2023/01/30 04:51:27;;;;;;;31.33;15.30;;;;;;;;;;10335301;28;20045;-85
2023/01/30 04:56:28;;;;;;;29.87;14.07;;;;;;;;;;10348042;28;20125;-87
2023/01/30 05:01:30;;;;;;;33.63;14.00;;;;;;;;;;10329695;28;20029;-85
2023/01/30 05:06:32;;;;;;;33.03;16.37;;;;;;;;;;10341111;28;20038;-86
2023/01/30 05:11:33;;;;;;;32.83;15.03;;;;;;;;;;10339216;28;20041;-82
2023/01/30 05:16:34;;;;;;;33.20;15.03;;;;;;;;;;10342246;28;20054;-85
2023/01/30 05:21:35;;;;;;;32.57;15.03;;;;;;;;;;10352225;28;20057;-84
2023/01/30 05:26:36;;;;;;;32.23;14.27;;;;;;;;;;10338452;28;20041;-83
2023/01/30 05:31:37;;;;;;;28.97;13.67;;;;;;;;;;10347464;28;20044;-85
2023/01/30 05:36:38;;;;;;;31.23;14.80;;;;;;;;;;10362304;28;20073;-83
2023/01/30 05:41:39;;;;;;;29.43;13.77;;;;;;;;;;10362914;28;20362;-84
2023/01/30 05:46:40;;;;;;;34.17;14.63;;;;;;;;;;10363057;28;20034;-83
2023/01/30 05:51:41;;;;;;;31.37;15.00;;;;;;;;;;10360816;28;20081;-83
2023/01/30 05:56:42;;;;;;;32.80;15.27;;;;;;;;;;10361979;28;20117;-83
2023/01/30 06:01:43;;;;;;;31.60;14.60;;;;;;;;;;10362482;28;20116;-83
2023/01/30 06:06:44;;;;;;;30.30;15.07;;;;;;;;;;10362285;28;20482;-84
2023/01/30 06:11:45;;;;;;;31.43;14.90;;;;;;;;;;10361909;28;20030;-83
2023/01/30 06:16:46;;;;;;;36.93;16.13;;;;;;;;;;10362651;28;20041;-84
2023/01/30 06:21:47;;;;;;;32.00;14.90;;;;;;;;;;10369728;28;20077;-85
2023/01/30 06:26:48;;;;;;;33.67;15.63;;;;;;;;;;10352069;28;20038;-83
2023/01/30 06:31:49;;;;;;;35.13;15.33;;;;;;;;;;10370205;28;20177;-84
2023/01/30 06:36:50;;;;;;;34.90;16.97;;;;;;;;;;10369074;28;20033;-85
2023/01/30 06:41:51;;;;;;;38.27;17.87;;;;;;;;;;10369054;28;20034;-86
2023/01/30 06:46:52;;;;;;;36.43;16.57;;;;;;;;;;10352080;28;20481;-88
2023/01/30 06:51:53;;;;;;;35.13;17.57;;;;;;;;;;10368949;28;20389;-84
2023/01/30 06:56:54;;;;;;;40.37;19.03;;;;;;;;;;10369290;28;20045;-85
2023/01/30 07:01:55;;;;;;;38.37;18.27;;;;;;;;;;10368345;28;20037;-83
2023/01/30 07:06:56;;;;;;;43.37;18.17;;;;;;;;;;10350378;28;20556;-84
2023/01/30 07:11:57;;;;;;;35.93;17.57;;;;;;;;;;10368195;28;20516;-84
2023/01/30 07:16:58;;;;;;;69.87;26.70;;;;;;;;;;10368528;28;20149;-82
2023/01/30 07:21:59;;;;;;;110.37;38.77;;;;;;;;;;10367658;28;20185;-85
2023/01/30 07:27:00;;;;;;;69.33;28.43;;;;;;;;;;10368001;28;20033;-83
2023/01/30 07:32:01;;;;;;;100.57;34.30;;;;;;;;;;10366807;28;20033;-85
2023/01/30 07:37:02;;;;;;;68.40;26.07;;;;;;;;;;10367496;28;20038;-83
2023/01/30 07:42:03;;;;;;;48.33;20.60;;;;;;;;;;10367650;28;20041;-83
2023/01/30 07:47:04;;;;;;;57.53;23.93;;;;;;;;;;10367354;28;20037;-84
2023/01/30 07:52:05;;;;;;;58.33;22.23;;;;;;;;;;10367011;28;20030;-84
2023/01/30 07:57:06;;;;;;;56.70;21.83;;;;;;;;;;10366328;28;20042;-84
2023/01/30 08:02:09;;;;;;;43.80;18.87;;;;;;;;;;10366311;28;20037;-84
2023/01/30 08:07:10;;;;;;;39.50;17.83;;;;;;;;;;10366037;28;20057;-85
2023/01/30 08:12:11;;;;;;;42.83;18.47;;;;;;;;;;10366360;28;20076;-85
2023/01/30 08:17:12;;;;;;;54.20;22.27;;;;;;;;;;10348282;28;20149;-83
2023/01/30 08:22:13;;;;;;;43.43;20.23;;;;;;;;;;10347834;28;20615;-83
2023/01/30 08:27:14;;;;;;;41.67;17.53;;;;;;;;;;10347980;28;20038;-83
2023/01/30 08:32:15;;;;;;;41.33;18.00;;;;;;;;;;10365248;28;20022;-84
2023/01/30 08:37:16;;;;;;;55.97;21.97;;;;;;;;;;10365741;28;20042;-84
2023/01/30 08:42:17;;;;;;;51.67;21.60;;;;;;;;;;10351277;28;20034;-84
2023/01/30 08:47:18;;;;;;;57.77;24.50;;;;;;;;;;10347216;28;20042;-84
2023/01/30 08:52:19;;;;;;;41.37;17.47;;;;;;;;;;10364455;28;20025;-83
2023/01/30 08:57:20;;;;;;;48.30;20.53;;;;;;;;;;10364565;28;20484;-83
2023/01/30 09:02:21;;;;;;;32.53;15.93;;;;;;;;;;10364693;28;20042;-84
2023/01/30 09:07:22;;;;;;;39.97;17.43;;;;;;;;;;10364104;28;20022;-85
2023/01/30 09:12:23;;;;;;;46.53;19.43;;;;;;;;;;10363761;28;20473;-84
2023/01/30 09:17:24;;;;;;;38.67;16.97;;;;;;;;;;10363810;28;20050;-84
2023/01/30 09:22:25;;;;;;;48.50;20.77;;;;;;;;;;10363148;28;20062;-84
2023/01/30 09:27:26;;;;;;;39.70;17.93;;;;;;;;;;10346059;28;20458;-84
2023/01/30 09:32:27;;;;;;;53.30;21.37;;;;;;;;;;10363214;28;20160;-84
2023/01/30 09:37:28;;;;;;;43.70;18.27;;;;;;;;;;10363104;28;20794;-85
2023/01/30 09:42:38;;;;;;;37.37;16.73;;;;;;;;;;10345517;28;20398;-83
2023/01/30 09:47:39;;;;;;;96.40;37.83;;;;;;;;;;10345144;28;20034;-84
2023/01/30 09:52:59;;;;;;;37.97;17.27;;;;;;;;;;10349764;28;20033;-84
2023/01/30 09:58:00;;;;;;;59.43;25.13;;;;;;;;;;10344581;28;20154;-84
2023/01/30 10:03:07;;;;;;;46.40;20.13;;;;;;;;;;10362356;28;20030;-84
2023/01/30 10:08:16;;;;;;;55.47;21.87;;;;;;;;;;10345707;28;20095;-84
2023/01/30 10:13:26;;;;;;;41.23;18.73;;;;;;;;;;10344980;28;20034;-83
2023/01/30 10:18:27;;;;;;;54.60;21.30;;;;;;;;;;10361784;28;20117;-85
2023/01/30 10:23:46;;;;;;;43.13;19.57;;;;;;;;;;10344464;28;20413;-85
2023/01/30 10:28:47;;;;;;;45.00;21.00;;;;;;;;;;10362622;28;20026;-84
2023/01/30 10:33:56;;;;;;;47.33;23.23;;;;;;;;;;10361686;28;20045;-84
2023/01/30 10:38:58;;;;;;;48.77;22.80;;;;;;;;;;10362180;28;20072;-84
2023/01/30 10:44:04;;;;;;;43.20;20.13;;;;;;;;;;10361546;28;20113;-83
2023/01/30 10:49:06;;;;;;;35.92;17.45;;;;;;;;;;10343857;28;20025;-84
2023/01/30 10:54:17;;;;;;;47.60;21.50;;;;;;;;;;10343326;28;20433;-83
2023/01/30 10:59:22;;;;;;;49.37;22.30;;;;;;;;;;10344318;28;20065;-85
2023/01/30 11:04:30;;;;;;;47.03;19.77;;;;;;;;;;10361877;28;20118;-85
2023/01/30 11:09:41;;;;;;;51.70;21.40;;;;;;;;;;10368494;28;20029;-85
2023/01/30 11:14:52;;;;;;;53.43;23.70;;;;;;;;;;10368279;28;20055;-83
2023/01/30 11:19:54;;;;;;;53.13;23.80;;;;;;;;;;10368343;28;20040;-83
2023/01/30 11:25:10;;;;;;;42.00;20.10;;;;;;;;;;10367864;28;20064;-86
2023/01/30 11:30:13;;;;;;;46.30;20.50;;;;;;;;;;10368223;28;20087;-84
2023/01/30 11:35:14;;;;;;;39.87;19.20;;;;;;;;;;10367510;28;20032;-84
2023/01/30 11:40:19;;;;;;;45.67;20.43;;;;;;;;;;10367451;28;20033;-84
2023/01/30 11:45:25;;;;;;;46.85;21.52;;;;;;;;;;10367545;28;20042;-84
2023/01/30 11:50:29;;;;;;;46.95;21.25;;;;;;;;;;10367850;28;20026;-85
2023/01/30 11:55:31;;;;;;;48.20;22.23;;;;;;;;;;10366746;28;20390;-84
2023/01/30 12:00:40;;;;;;;51.10;23.10;;;;;;;;;;10367180;28;20870;-84
2023/01/30 12:05:43;;;;;;;45.07;21.80;;;;;;;;;;10366533;28;20026;-85
2023/01/30 12:10:45;;;;;;;47.27;23.70;;;;;;;;;;10366766;28;20029;-85
2023/01/30 12:15:49;;;;;;;47.83;21.77;;;;;;;;;;10347717;28;20516;-85
2023/01/30 12:21:00;;;;;;;56.57;25.60;;;;;;;;;;10347902;28;20056;-83
2023/01/30 12:26:07;;;;;;;49.97;24.83;;;;;;;;;;10365997;28;20032;-84
2023/01/30 12:31:17;;;;;;;54.30;25.53;;;;;;;;;;10365637;28;20024;-85
2023/01/30 12:36:36;;;;;;;62.57;28.63;;;;;;;;;;10365314;28;20038;-83
2023/01/30 12:41:50;;;;;;;56.10;25.47;;;;;;;;;;10365094;28;20112;-88
2023/01/30 12:47:00;;;;;;;58.40;26.60;;;;;;;;;;10346498;28;20075;-85
2023/01/30 12:52:12;;;;;;;63.17;28.10;;;;;;;;;;10346960;28;20034;-87
2023/01/30 12:57:27;;;;;;;61.73;27.63;;;;;;;;;;10346516;28;20133;-87
2023/01/30 13:02:54;;;;;;;62.03;26.50;;;;;;;;;;10364039;28;20421;-87
2023/01/30 13:08:21;;;;;;;63.07;28.73;;;;;;;;;;10363995;28;20028;-85
2023/01/30 13:13:34;;;;;;;68.33;32.17;;;;;;;;;;10359609;28;20117;-84
2023/01/30 13:18:35;;;;;;;67.53;30.07;;;;;;;;;;10343863;28;20595;-84
2023/01/30 13:23:55;;;;;;;65.50;31.03;;;;;;;;;;10355055;28;20061;-85
2023/01/30 13:28:58;;;;;;;68.53;33.53;;;;;;;;;;10344111;28;20099;-85
2023/01/30 13:34:04;;;;;;;74.57;32.67;;;;;;;;;;10357267;28;20049;-84
2023/01/30 13:39:11;;;;;;;67.37;31.23;;;;;;;;;;10345227;28;20596;-84
2023/01/30 13:44:24;;;;;;;91.33;37.20;;;;;;;;;;10363205;28;20065;-84
2023/01/30 13:49:36;;;;;;;85.17;37.97;;;;;;;;;;10332999;28;20041;-84
2023/01/30 13:55:06;;;;;;;77.63;34.00;;;;;;;;;;10362402;28;20038;-84
2023/01/30 14:00:08;;;;;;;84.73;36.83;;;;;;;;;;10345022;28;20072;-84
2023/01/30 14:05:09;;;;;;;110.53;44.80;;;;;;;;;;10340156;28;20128;-85
2023/01/30 14:10:10;;;;;;;77.70;32.83;;;;;;;;;;10360848;28;20486;-84
2023/01/30 14:15:14;;;;;;;75.93;33.43;;;;;;;;;;10343844;28;20112;-86
2023/01/30 14:20:16;;;;;;;87.90;35.10;;;;;;;;;;10352704;28;20061;-83
2023/01/30 14:25:31;;;;;;;67.33;30.47;;;;;;;;;;10360812;28;20033;-83
2023/01/30 14:30:35;;;;;;;61.03;27.03;;;;;;;;;;10339318;28;20681;-83
2023/01/30 14:35:36;;;;;;;119.33;43.67;;;;;;;;;;10350690;28;20497;-84
2023/01/30 14:40:38;;;;;;;93.00;34.70;;;;;;;;;;10352964;28;20037;-85
2023/01/30 14:45:49;;;;;;;64.63;30.33;;;;;;;;;;10347634;28;20072;-84
2023/01/30 14:50:50;;;;;;;65.13;27.33;;;;;;;;;;10341075;28;20037;-86
2023/01/30 14:55:58;;;;;;;61.93;26.07;;;;;;;;;;10368150;28;20056;-86
2023/01/30 15:00:59;;;;;;;103.03;39.80;;;;;;;;;;10362396;28;20040;-84
2023/01/30 15:06:00;;;;;;;56.80;26.00;;;;;;;;;;10333659;28;20033;-86
2023/01/30 15:11:08;;;;;;;43.93;19.63;;;;;;;;;;10353087;28;20497;-88
2023/01/30 15:16:24;;;;;;;45.53;20.10;;;;;;;;;;10356366;28;20084;-85
2023/01/30 15:21:30;;;;;;;51.13;23.93;;;;;;;;;;10368659;28;20434;-85
2023/01/30 15:26:52;;;;;;;56.13;25.60;;;;;;;;;;10336530;28;20046;-86
2023/01/30 15:31:57;;;;;;;51.40;24.20;;;;;;;;;;10335715;28;20058;-86
2023/01/30 15:36:58;;;;;;;62.07;27.23;;;;;;;;;;10311425;28;20061;-85
2023/01/30 15:42:05;;;;;;;54.37;23.50;;;;;;;;;;10317372;28;20046;-86
2023/01/30 15:47:26;;;;;;;80.10;33.27;;;;;;;;;;10330630;28;20036;-86
2023/01/30 15:52:35;;;;;;;53.30;25.17;;;;;;;;;;10359596;28;20038;-87
2023/01/30 15:57:38;;;;;;;65.10;31.03;;;;;;;;;;10343992;28;20070;-86
2023/01/30 16:02:41;;;;;;;62.30;27.90;;;;;;;;;;10350923;28;20044;-87
2023/01/30 16:07:43;;;;;;;65.60;29.70;;;;;;;;;;10354453;28;20029;-86
2023/01/30 16:12:44;;;;;;;62.30;26.53;;;;;;;;;;10366155;28;20449;-89
2023/01/30 16:17:48;;;;;;;64.33;29.93;;;;;;;;;;10362416;28;20045;-87
2023/01/30 16:22:49;;;;;;;58.27;25.80;;;;;;;;;;10360930;28;20115;-87
2023/01/30 16:27:52;;;;;;;74.83;31.43;;;;;;;;;;10340753;28;20116;-86
2023/01/30 16:32:54;;;;;;;63.50;27.87;;;;;;;;;;10371136;28;20022;-86
2023/01/30 16:37:56;;;;;;;43.07;21.43;;;;;;;;;;10336207;28;20120;-88
2023/01/30 16:42:58;;;;;;;72.90;33.17;;;;;;;;;;10333689;28;20125;-85
2023/01/30 16:48:23;;;;;;;95.33;35.63;;;;;;;;;;10356254;28;20033;-89
2023/01/30 16:53:25;;;;;;;57.57;25.23;;;;;;;;;;10353363;28;20081;-87
2023/01/30 16:58:31;;;;;;;60.07;28.73;;;;;;;;;;10346127;28;20062;-87
2023/01/30 17:03:35;;;;;;;52.67;24.40;;;;;;;;;;10360172;28;20445;-86
2023/01/30 17:08:43;;;;;;;61.10;27.57;;;;;;;;;;10342435;28;20145;-88
2023/01/30 17:13:45;;;;;;;48.23;23.03;;;;;;;;;;10316020;28;20142;-90
2023/01/30 17:18:50;;;;;;;160.17;59.03;;;;;;;;;;10342459;28;20046;-86
2023/01/30 17:23:57;;;;;;;90.73;34.40;;;;;;;;;;10340499;28;20647;-83
2023/01/30 17:28:58;;;;;;;48.60;21.17;;;;;;;;;;10339962;28;20515;-84
2023/01/30 17:33:59;;;;;;;59.63;28.10;;;;;;;;;;10342118;28;20112;-85
2023/01/30 17:39:00;;;;;;;47.43;23.63;;;;;;;;;;10332450;28;20140;-82
2023/01/30 17:44:01;;;;;;;54.87;28.13;;;;;;;;;;10334182;28;20041;-85
2023/01/30 17:49:08;;;;;;;93.43;36.23;;;;;;;;;;10337417;28;20066;-83
2023/01/30 17:54:10;;;;;;;78.73;30.60;;;;;;;;;;10361856;28;20500;-83
2023/01/30 17:59:15;;;;;;;53.97;26.03;;;;;;;;;;10329644;28;20148;-83
2023/01/30 18:04:16;;;;;;;47.37;24.20;;;;;;;;;;10358011;28;20091;-84
2023/01/30 18:09:18;;;;;;;44.87;22.87;;;;;;;;;;10356573;28;20665;-84
2023/01/30 18:14:19;;;;;;;57.07;25.87;;;;;;;;;;10353137;28;20144;-85
2023/01/30 18:19:22;;;;;;;47.17;23.47;;;;;;;;;;10366956;28;20037;-84
2023/01/30 18:24:23;;;;;;;65.83;27.27;;;;;;;;;;10347918;28;20061;-83
2023/01/30 18:29:24;;;;;;;56.13;24.43;;;;;;;;;;10367378;28;20116;-84
2023/01/30 18:34:25;;;;;;;42.00;22.30;;;;;;;;;;10361505;28;20022;-88
2023/01/30 18:39:26;;;;;;;55.30;25.00;;;;;;;;;;10367233;28;20444;-85
2023/01/30 18:44:27;;;;;;;63.60;29.37;;;;;;;;;;10356960;28;20385;-85
2023/01/30 18:49:29;;;;;;;49.83;23.80;;;;;;;;;;10354343;28;20437;-85
2023/01/30 18:54:30;;;;;;;48.57;24.07;;;;;;;;;;10363902;28;20045;-85
2023/01/30 18:59:31;;;;;;;57.40;25.63;;;;;;;;;;10366666;28;20042;-84
2023/01/30 19:04:32;;;;;;;56.10;28.23;;;;;;;;;;10344914;28;20580;-86
2023/01/30 19:09:34;;;;;;;55.93;26.43;;;;;;;;;;10357513;28;20402;-88
2023/01/30 19:14:35;;;;;;;56.67;26.20;;;;;;;;;;10365719;28;20037;-87
2023/01/30 19:19:36;;;;;;;54.30;25.60;;;;;;;;;;10366604;28;20046;-88
2023/01/30 19:24:37;;;;;;;53.27;23.87;;;;;;;;;;10350018;28;20060;-86
2023/01/30 19:29:38;;;;;;;56.70;25.33;;;;;;;;;;10337644;28;20461;-85
2023/01/30 19:34:39;;;;;;;48.00;22.73;;;;;;;;;;10343879;28;20120;-91
2023/01/30 19:39:40;;;;;;;58.90;24.60;;;;;;;;;;10316916;28;20049;-85
2023/01/30 19:44:41;;;;;;;53.87;24.17;;;;;;;;;;10326090;28;20029;-87
2023/01/30 19:49:42;;;;;;;52.07;24.07;;;;;;;;;;10325298;28;20042;-88
2023/01/30 19:54:45;;;;;;;81.87;37.77;;;;;;;;;;10325686;28;20064;-87
2023/01/30 19:59:46;;;;;;;61.40;29.50;;;;;;;;;;10327572;28;20129;-86
2023/01/30 20:04:47;;;;;;;62.10;30.47;;;;;;;;;;10326539;28;20034;-87
2023/01/30 20:09:48;;;;;;;63.57;29.93;;;;;;;;;;10327460;28;20030;-88
2023/01/30 20:14:49;;;;;;;60.80;29.77;;;;;;;;;;10307740;28;20034;-86
2023/01/30 20:19:50;;;;;;;64.57;29.87;;;;;;;;;;10328308;28;20046;-87
2023/01/30 20:24:51;;;;;;;65.77;29.03;;;;;;;;;;10322918;28;20469;-89
2023/01/30 20:29:52;;;;;;;61.87;29.63;;;;;;;;;;10326988;28;20054;-86
2023/01/30 20:34:53;;;;;;;54.27;22.50;;;;;;;;;;10322865;28;20394;-86
2023/01/30 20:39:55;;;;;;;48.57;22.37;;;;;;;;;;10322464;28;20452;-87
2023/01/30 20:44:56;;;;;;;39.23;18.30;;;;;;;;;;10327673;28;20032;-87
2023/01/30 20:49:57;;;;;;;31.10;13.13;;;;;;;;;;10322709;28;20030;-86
2023/01/30 20:54:58;;;;;;;22.53;10.37;;;;;;;;;;10306883;28;20037;-87
2023/01/30 20:59:59;;;;;;;22.93;11.83;;;;;;;;;;10324669;28;20042;-87
2023/01/30 21:05:00;;;;;;;26.83;12.97;;;;;;;;;;10325008;28;20041;-86
2023/01/30 21:10:01;;;;;;;30.63;13.47;;;;;;;;;;10323779;28;20082;-87
2023/01/30 21:15:02;;;;;;;18.67;8.37;;;;;;;;;;10325088;28;20089;-85
2023/01/30 21:20:03;;;;;;;29.07;12.90;;;;;;;;;;10322640;28;20096;-85
2023/01/30 21:25:04;;;;;;;17.53;7.97;;;;;;;;;;10307477;28;20033;-86
2023/01/30 21:30:06;;;;;;;19.47;8.10;;;;;;;;;;10322311;28;20148;-88
2023/01/30 21:35:07;;;;;;;52.37;18.47;;;;;;;;;;10323301;28;20118;-86
2023/01/30 21:45:28;;;;;;;43.53;18.00;;;;;;;;;;10323710;28;20042;-87
2023/01/30 21:50:29;;;;;;;35.27;15.23;;;;;;;;;;10321313;28;20561;-88
2023/01/30 21:55:30;;;;;;;38.53;15.97;;;;;;;;;;10320952;28;20041;-86
2023/01/30 22:00:31;;;;;;;31.93;13.50;;;;;;;;;;10321866;28;20038;-88
2023/01/30 22:05:34;;;;;;;39.50;17.00;;;;;;;;;;10323988;28;20038;-88
2023/01/30 22:10:35;;;;;;;42.93;16.77;;;;;;;;;;10326318;28;20034;-87
2023/01/30 22:15:36;;;;;;;50.50;23.00;;;;;;;;;;10320614;28;20488;-87
2023/01/30 22:20:37;;;;;;;61.50;31.67;;;;;;;;;;10325348;28;20050;-88
2023/01/30 22:25:38;;;;;;;38.00;19.57;;;;;;;;;;10320512;28;20473;-86
2023/01/30 22:30:39;;;;;;;59.93;24.57;;;;;;;;;;10322465;28;20034;-87
2023/01/30 22:35:47;;;;;;;61.30;24.40;;;;;;;;;;10321736;28;20037;-87
2023/01/30 22:40:49;;;;;;;84.37;32.67;;;;;;;;;;10320360;28;20128;-87
2023/01/30 22:45:50;;;;;;;65.23;27.13;;;;;;;;;;10304042;28;20138;-87
2023/01/30 22:51:03;;;;;;;59.97;23.40;;;;;;;;;;10322801;28;20034;-88
2023/01/30 22:56:09;;;;;;;47.70;20.53;;;;;;;;;;10318253;28;20203;-88
2023/01/30 23:01:11;;;;;;;36.38;15.57;;;;;;;;;;10321776;28;20508;-88
2023/01/30 23:06:13;;;;;;;43.17;18.77;;;;;;;;;;10330912;28;20033;-87
2023/01/30 23:11:16;;;;;;;43.93;18.60;;;;;;;;;;10310826;28;20034;-87
2023/01/30 23:16:20;;;;;;;36.03;18.83;;;;;;;;;;10328074;28;20077;-88
2023/01/30 23:21:25;;;;;;;43.97;21.17;;;;;;;;;;10328293;28;20053;-87
2023/01/30 23:26:27;;;;;;;38.13;17.63;;;;;;;;;;10325346;28;20045;-88
2023/01/30 23:31:29;;;;;;;25.87;12.13;;;;;;;;;;10313019;28;20041;-88
2023/01/30 23:36:30;;;;;;;27.70;11.20;;;;;;;;;;10324281;28;20172;-89
2023/01/30 23:41:32;;;;;;;19.40;8.77;;;;;;;;;;10326777;28;20583;-89
2023/01/30 23:46:34;;;;;;;19.17;8.90;;;;;;;;;;10327049;28;20041;-89
2023/01/30 23:51:37;;;;;;;16.30;7.53;;;;;;;;;;10318401;28;20022;-90
2023/01/30 23:56:39;;;;;;;13.50;7.17;;;;;;;;;;10309215;28;20168;-86
